createdAt,value
2022-10-01T00:03:01.100Z,99707.59
2022-10-01T00:08:50.086Z,99705.19
2022-10-01T00:14:39.441Z,99719.41
2022-10-01T00:20:26.101Z,99720.41
2022-10-01T00:26:13.599Z,99718.53
2022-10-01T00:32:00.405Z,99711.16
2022-10-01T00:37:52.184Z,99744.53
2022-10-01T00:43:44.183Z,99742.63
2022-10-01T00:49:33.649Z,99748.31
2022-10-01T00:55:23.260Z,99757.50
2022-10-01T01:01:09.988Z,99760.53
2022-10-01T01:06:59.641Z,99763.06
2022-10-01T01:13:11.506Z,99765.16
2022-10-01T01:19:43.909Z,99780.56
2022-10-01T01:25:47.933Z,99769.28
2022-10-01T01:31:39.903Z,99798.94
2022-10-01T01:37:30.874Z,99798.28
2022-10-01T01:43:24.191Z,99809.97
2022-10-01T01:49:11.332Z,99824.72
2022-10-01T01:54:58.399Z,99822.94
2022-10-01T02:00:52.306Z,99835.63
2022-10-01T02:07:17.329Z,99823.84
2022-10-01T02:13:29.861Z,99831.78
2022-10-01T02:19:27.046Z,99836.19
2022-10-01T02:25:17.388Z,99830.09
2022-10-01T02:31:09.188Z,99834.13
2022-10-01T02:36:59.361Z,99836.28
2022-10-01T02:42:51.737Z,99834.41
2022-10-01T02:48:38.370Z,99828.41
2022-10-01T02:54:51.105Z,99838.19
2022-10-01T03:00:37.754Z,99848.22
2022-10-01T03:06:24.496Z,99849.09
2022-10-01T03:12:11.266Z,99865.47
2022-10-01T03:17:57.899Z,99880.41
2022-10-01T03:23:44.873Z,99887.25
2022-10-01T03:29:31.474Z,99896.50
2022-10-01T03:35:20.761Z,99899.75
2022-10-01T03:41:07.761Z,99907.88
2022-10-01T03:46:55.102Z,99924.84
2022-10-01T03:52:42.760Z,99934.66
2022-10-01T03:58:29.355Z,99952.88
2022-10-01T04:04:16.440Z,99954.56
2022-10-01T04:10:03.326Z,99960.25
2022-10-01T04:15:49.989Z,99972.28
2022-10-01T04:21:38.228Z,99968.53
2022-10-01T04:27:25.915Z,99985.28
2022-10-01T04:33:14.997Z,99992.63
2022-10-01T04:39:02.730Z,99982.16
2022-10-01T04:44:49.696Z,100000.06
2022-10-01T04:50:36.310Z,100007.25
2022-10-01T04:56:22.986Z,100017.88
2022-10-01T05:02:10.017Z,100033.84
2022-10-01T05:07:56.658Z,100050.16
2022-10-01T05:13:43.864Z,100051.06
2022-10-01T05:19:30.721Z,100053.28
2022-10-01T05:25:18.881Z,100069.06
2022-10-01T05:31:05.798Z,100075.81
2022-10-01T05:36:55.803Z,100085.34
2022-10-01T05:42:46.507Z,100101.34
2022-10-01T05:48:36.890Z,100117.41
2022-10-01T05:54:24.778Z,100116.19
2022-10-01T06:00:13.720Z,100118.66
2022-10-01T06:06:00.897Z,100142.59
2022-10-01T06:11:49.538Z,100142.16
2022-10-01T06:17:36.249Z,100150.78
2022-10-01T06:23:23.234Z,100160.66
2022-10-01T06:29:10.855Z,100174.09
2022-10-01T06:34:57.497Z,100167.75
2022-10-01T06:40:44.156Z,100171.81
2022-10-01T06:46:31.881Z,100186.69
2022-10-01T06:52:37.204Z,100197.16
2022-10-01T06:58:32.012Z,100208.47
2022-10-01T07:04:18.674Z,100213.34
2022-10-01T07:10:07.918Z,100220.06
2022-10-01T07:15:54.599Z,100221.34
2022-10-01T07:21:41.215Z,100238.69
2022-10-01T07:27:28.078Z,100235.28
2022-10-01T07:33:18.233Z,100251.91
2022-10-01T07:39:04.922Z,100232.41
2022-10-01T07:44:51.510Z,100236.50
2022-10-01T07:50:38.414Z,100243.66
2022-10-01T07:56:27.036Z,100249.13
2022-10-01T08:02:19.060Z,100245.19
2022-10-01T08:08:08.717Z,100273.69
2022-10-01T08:13:59.472Z,100270.38
2022-10-01T08:19:52.050Z,100285.09
2022-10-01T08:25:39.894Z,100285.97
2022-10-01T08:31:26.727Z,100299.66
2022-10-01T08:37:14.358Z,100308.97
2022-10-01T08:43:07.459Z,100317.84
2022-10-01T08:49:16.326Z,100325.03
2022-10-01T08:55:20.252Z,100333.41
2022-10-01T09:01:11.834Z,100336.34
2022-10-01T09:07:11.842Z,100339.00
2022-10-01T09:13:20.062Z,100337.63
2022-10-01T09:19:15.598Z,100340.41
2022-10-01T09:25:21.526Z,100353.06
2022-10-01T09:31:11.288Z,100364.53
2022-10-01T09:37:18.307Z,100381.47
2022-10-01T09:43:08.297Z,100388.31
2022-10-01T09:49:24.091Z,100399.91
2022-10-01T09:55:19.716Z,100395.56
2022-10-01T10:01:18.313Z,100410.84
2022-10-01T10:07:05.962Z,100413.31
2022-10-01T10:13:18.885Z,100410.31
2022-10-01T10:19:18.899Z,100406.34
2022-10-01T10:25:19.669Z,100411.09
2022-10-01T10:31:14.992Z,100420.41
2022-10-01T10:37:07.495Z,100424.56
2022-10-01T10:42:56.954Z,100418.66
2022-10-01T10:48:49.546Z,100425.94
2022-10-01T10:54:40.529Z,100437.38
2022-10-01T11:00:27.458Z,100463.91
2022-10-01T11:06:18.879Z,100461.88
2022-10-01T11:12:19.021Z,100464.84
2022-10-01T11:18:48.382Z,100473.19
2022-10-01T11:24:56.989Z,100473.31
2022-10-01T11:31:07.693Z,100482.88
2022-10-01T11:37:06.436Z,100485.25
2022-10-01T11:43:13.704Z,100501.31
2022-10-01T11:49:42.630Z,100517.84
2022-10-01T11:56:18.607Z,100522.44
2022-10-01T12:02:20.793Z,100527.63
2022-10-01T12:08:20.758Z,100532.69
2022-10-01T12:14:39.713Z,100537.03
2022-10-01T12:20:31.980Z,100535.19
2022-10-01T12:26:34.684Z,100530.75
2022-10-01T12:32:43.244Z,100541.34
2022-10-01T12:39:03.449Z,100548.50
2022-10-01T12:45:01.603Z,100553.38
2022-10-01T12:51:31.489Z,100543.66
2022-10-01T12:57:46.035Z,100556.78
2022-10-01T13:04:03.409Z,100571.56
2022-10-01T13:10:29.719Z,100580.16
2022-10-01T13:16:31.153Z,100589.50
2022-10-01T13:22:37.142Z,100570.75
2022-10-01T13:29:12.352Z,100575.66
2022-10-01T13:35:01.570Z,100574.47
2022-10-01T13:41:19.178Z,100570.28
2022-10-01T13:47:10.031Z,100576.88
2022-10-01T13:53:18.906Z,100588.84
2022-10-01T13:59:38.135Z,100597.44
2022-10-01T14:05:59.779Z,100610.81
2022-10-01T14:25:13.943Z,100617.88
2022-10-01T14:31:40.739Z,100622.56
2022-10-01T14:37:29.347Z,100617.03
2022-10-01T14:43:32.801Z,100611.97
2022-10-01T14:49:27.500Z,100622.34
2022-10-01T14:55:16.713Z,100621.69
2022-10-01T15:01:06.957Z,100630.09
2022-10-01T15:06:54.389Z,100629.38
2022-10-01T15:12:41.896Z,100627.13
2022-10-01T15:18:36.851Z,100625.22
2022-10-01T15:24:55.372Z,100629.72
2022-10-01T15:30:47.479Z,100628.38
2022-10-01T15:37:17.990Z,100634.53
2022-10-01T15:43:12.614Z,100651.66
2022-10-01T15:49:32.733Z,100656.91
2022-10-01T15:55:36.930Z,100663.41
2022-10-01T16:01:50.698Z,100662.41
2022-10-01T16:07:41.213Z,100686.34
2022-10-01T16:13:40.733Z,100672.41
2022-10-01T16:19:31.865Z,100708.06
2022-10-01T16:25:27.300Z,100695.97
2022-10-01T16:31:14.146Z,100692.66
2022-10-01T16:37:00.767Z,100708.75
2022-10-01T16:42:50.533Z,100722.84
2022-10-01T16:48:37.136Z,100732.31
2022-10-01T16:54:26.609Z,100725.53
2022-10-01T17:00:15.409Z,100736.50
2022-10-01T17:06:03.105Z,100757.44
2022-10-01T17:11:50.336Z,100761.88
2022-10-01T17:17:37.048Z,100785.75
2022-10-01T17:23:24.060Z,100779.41
2022-10-01T17:29:15.773Z,100801.19
2022-10-01T17:35:16.199Z,100783.44
2022-10-01T17:41:04.021Z,100821.66
2022-10-01T17:46:51.369Z,100827.41
2022-10-01T17:52:38.044Z,100824.50
2022-10-01T17:58:25.037Z,100839.66
2022-10-01T18:04:15.480Z,100848.34
2022-10-01T18:10:08.484Z,100872.16
2022-10-01T18:16:01.757Z,100865.88
2022-10-01T18:21:48.936Z,100840.53
2022-10-01T18:27:35.835Z,100886.03
2022-10-01T18:33:23.226Z,100893.59
2022-10-01T18:39:35.468Z,100898.16
2022-10-01T18:45:48.638Z,100889.66
2022-10-01T18:52:06.954Z,100915.94
2022-10-01T18:58:06.049Z,100939.22
2022-10-01T19:04:34.498Z,100935.59
2022-10-01T19:10:30.382Z,100940.47
2022-10-01T19:16:29.537Z,100951.66
2022-10-01T19:22:30.776Z,100946.31
2022-10-01T19:28:51.749Z,100952.44
2022-10-01T19:34:46.982Z,100962.84
2022-10-01T19:40:58.954Z,100953.53
2022-10-01T19:46:47.986Z,100988.59
2022-10-01T19:52:38.286Z,101003.06
2022-10-01T19:58:25.796Z,101011.69
2022-10-01T20:04:39.615Z,101027.75
2022-10-01T20:10:37.880Z,101021.31
2022-10-01T20:16:43.837Z,101019.72
2022-10-01T20:22:42.509Z,101055.59
2022-10-01T20:28:44.676Z,101052.59
2022-10-01T20:35:01.773Z,101039.66
2022-10-01T20:41:05.238Z,101046.63
2022-10-01T20:46:58.924Z,101068.56
2022-10-01T20:53:01.047Z,101078.09
2022-10-01T20:58:53.086Z,101081.63
2022-10-01T21:04:51.797Z,101118.94
2022-10-01T21:11:03.304Z,101119.91
2022-10-01T21:17:22.149Z,101106.09
2022-10-01T21:23:33.130Z,101098.94
2022-10-01T21:29:43.186Z,101104.09
2022-10-01T21:35:52.037Z,101120.53
2022-10-01T21:41:54.156Z,101119.66
2022-10-01T21:47:54.016Z,101119.19
2022-10-01T21:53:49.872Z,101137.72
2022-10-01T21:59:52.067Z,101136.31
2022-10-01T22:05:59.202Z,101144.94
2022-10-01T22:11:52.845Z,101147.59
2022-10-01T22:17:39.735Z,101158.72
2022-10-01T22:23:29.880Z,101181.25
2022-10-01T22:29:20.401Z,101179.91
2022-10-01T22:35:14.409Z,101199.25
2022-10-01T22:41:10.297Z,101196.56
2022-10-01T22:47:31.069Z,101210.63
2022-10-01T22:53:18.839Z,101214.25
2022-10-01T22:59:26.511Z,101236.31
2022-10-01T23:05:44.549Z,101235.06
2022-10-01T23:11:57.348Z,101234.28
2022-10-01T23:18:00.893Z,101238.72
2022-10-01T23:24:06.598Z,101241.09
2022-10-01T23:30:15.485Z,101247.63
2022-10-01T23:36:26.652Z,101249.03
2022-10-01T23:42:22.970Z,101238.84
2022-10-01T23:48:23.441Z,101233.88
2022-10-01T23:54:19.311Z,101246.13
